Time;durP1;ratioP1;P1;durP2;ratioP2;P2;SDS_P1;SDS_P2;PMS_P1;PMS_P2;Temp;Humidity;BMP_temperature;BMP_pressure;BME280_temperature;BME280_humidity;BME280_pressure;Samples;Min_cycle;Max_cycle;Signal;HPM_P1;HPM_P2
2022/08/15 00:00:22;;;;;;;9.23;7.95;;;23.00;98.10;;;;;;5040229;28;39985;-62
2022/08/15 00:02:50;;;;;;;12.50;8.25;;;23.00;98.10;;;;;;5037409;28;38514;-62
2022/08/15 00:05:22;;;;;;;12.73;8.52;;;23.00;98.00;;;;;;5038407;28;35433;-58
2022/08/15 00:07:50;;;;;;;11.20;8.25;;;23.00;97.90;;;;;;5040747;28;36146;-58
2022/08/15 00:10:19;;;;;;;16.42;9.73;;;23.10;97.80;;;;;;5040914;28;37071;-62
2022/08/15 00:12:47;;;;;;;10.95;8.35;;;23.20;97.70;;;;;;5039566;28;37769;-58
2022/08/15 00:15:18;;;;;;;11.20;8.88;;;23.20;97.70;;;;;;5041110;28;36631;-61
2022/08/15 00:17:48;;;;;;;11.52;9.48;;;23.20;97.70;;;;;;5040926;28;37264;-58
2022/08/15 00:20:16;;;;;;;12.77;10.80;;;23.20;98.20;;;;;;5032980;28;38292;-58
2022/08/15 00:22:48;;;;;;;11.85;10.50;;;23.10;98.40;;;;;;5016807;28;38406;-61
2022/08/15 00:25:16;;;;;;;14.88;10.60;;;23.00;98.50;;;;;;5017803;28;37516;-58
2022/08/15 00:27:44;;;;;;;11.57;10.18;;;23.00;98.80;;;;;;5017968;28;38044;-58
2022/08/15 00:30:12;;;;;;;12.77;9.85;;;22.90;99.20;;;;;;5018996;28;38567;-61
2022/08/15 00:32:40;;;;;;;14.63;10.63;;;22.90;99.60;;;;;;5014671;28;36709;-58
2022/08/15 00:35:35;;;;;;;10.75;9.52;;;22.90;99.40;;;;;;5021994;28;36165;-61
2022/08/15 00:37:58;;;;;;;11.35;10.05;;;22.80;99.40;;;;;;5019580;28;37689;-58
2022/08/15 00:40:27;;;;;;;12.57;10.73;;;22.90;99.30;;;;;;5019967;28;38700;-58
2022/08/15 00:42:54;;;;;;;13.90;10.57;;;22.90;99.40;;;;;;5021421;28;38222;-58
2022/08/15 00:45:23;;;;;;;11.52;9.15;;;22.80;99.20;;;;;;5018681;28;38703;-62
2022/08/15 00:50:32;;;;;;;11.27;9.05;;;22.70;98.50;;;;;;5021571;28;38906;-58
2022/08/15 00:53:06;;;;;;;10.30;8.18;;;22.70;98.40;;;;;;5019532;28;38816;-58
2022/08/15 00:55:36;;;;;;;12.45;8.48;;;22.80;98.20;;;;;;5021924;28;36429;-58
2022/08/15 00:58:05;;;;;;;11.48;8.60;;;22.80;97.90;;;;;;5019152;28;37650;-61
2022/08/15 01:00:37;;;;;;;12.15;9.30;;;22.80;98.00;;;;;;5020943;28;36997;-61
2022/08/15 01:03:09;;;;;;;9.27;7.80;;;22.80;97.80;;;;;;5019477;28;37713;-62
2022/08/15 01:05:36;;;;;;;12.20;8.70;;;22.70;97.90;;;;;;5021581;28;37789;-58
2022/08/15 01:08:05;;;;;;;11.65;8.80;;;22.70;97.90;;;;;;5021068;28;35428;-62
2022/08/15 01:10:34;;;;;;;12.60;9.10;;;22.70;98.00;;;;;;5021285;28;37036;-58
2022/08/15 01:13:01;;;;;;;11.05;9.02;;;22.70;97.90;;;;;;5018249;28;37627;-61
2022/08/15 01:15:29;;;;;;;19.77;8.65;;;22.80;97.80;;;;;;5014733;28;36058;-58
2022/08/15 01:17:57;;;;;;;10.98;8.82;;;22.80;97.30;;;;;;5019175;28;38479;-58
2022/08/15 01:20:27;;;;;;;10.10;8.32;;;22.90;97.10;;;;;;5026333;28;38043;-58
2022/08/15 01:23:09;;;;;;;10.85;9.35;;;22.80;96.80;;;;;;5038115;28;37564;-58
2022/08/15 01:25:41;;;;;;;13.45;8.98;;;22.90;96.80;;;;;;5036769;28;36650;-62
2022/08/15 01:28:14;;;;;;;13.30;10.07;;;22.90;96.80;;;;;;5037959;28;37841;-58
2022/08/15 01:30:43;;;;;;;;;;;22.80;96.70;;;;;;5037274;28;39733;-58
2022/08/15 01:33:10;;;;;;;10.23;8.23;;;22.80;96.80;;;;;;5035910;28;36418;-58
2022/08/15 01:35:38;;;;;;;11.45;9.45;;;22.70;96.90;;;;;;5038066;28;36437;-58
2022/08/15 01:38:14;;;;;;;12.13;9.20;;;22.70;97.10;;;;;;5037943;28;37183;-61
2022/08/15 01:40:54;;;;;;;14.80;9.57;;;22.70;96.90;;;;;;5036288;28;37430;-58
2022/08/15 01:43:30;;;;;;;16.05;10.13;;;22.60;96.80;;;;;;5035727;28;37976;-61
2022/08/15 01:46:02;;;;;;;12.45;9.10;;;22.60;96.80;;;;;;5038833;28;35451;-61
2022/08/15 01:48:34;;;;;;;12.55;9.43;;;22.60;96.90;;;;;;5037151;28;37473;-62
2022/08/15 01:51:06;;;;;;;13.03;9.33;;;22.60;96.90;;;;;;5035081;28;40855;-58
2022/08/15 01:53:39;;;;;;;10.65;8.25;;;22.60;97.00;;;;;;5035701;28;38372;-58
2022/08/15 01:56:12;;;;;;;12.05;9.32;;;22.60;97.00;;;;;;5034305;28;37989;-58
2022/08/15 01:58:43;;;;;;;11.88;7.97;;;22.60;97.10;;;;;;5036733;28;38683;-61
2022/08/15 02:01:14;;;;;;;11.68;9.02;;;22.70;97.20;;;;;;5035792;28;38133;-61
2022/08/15 02:03:43;;;;;;;11.85;9.20;;;22.70;97.20;;;;;;5035078;28;39162;-61
2022/08/15 02:06:15;;;;;;;13.00;9.25;;;22.70;97.20;;;;;;5036062;28;37615;-61
2022/08/15 02:08:44;;;;;;;11.43;9.65;;;22.70;97.20;;;;;;5035698;28;38215;-62
2022/08/15 02:11:18;;;;;;;12.45;10.13;;;22.80;97.20;;;;;;5036239;28;37632;-58
2022/08/15 02:13:47;;;;;;;13.45;9.60;;;22.80;97.10;;;;;;5034147;28;38122;-61
2022/08/15 02:16:15;;;;;;;11.02;9.13;;;22.80;97.00;;;;;;5032754;28;36489;-58
2022/08/15 02:18:42;;;;;;;14.60;10.10;;;22.80;97.00;;;;;;5034793;28;38441;-58
2022/08/15 02:21:10;;;;;;;17.23;10.95;;;22.80;97.10;;;;;;5038100;28;38070;-61
2022/08/15 02:23:38;;;;;;;14.50;10.00;;;22.70;97.00;;;;;;5040801;28;36675;-58
2022/08/15 02:26:08;;;;;;;15.82;10.75;;;22.70;97.00;;;;;;5042912;28;36931;-62
2022/08/15 02:28:41;;;;;;;13.07;9.60;;;22.70;97.00;;;;;;5040218;28;37431;-58
2022/08/15 02:31:11;;;;;;;12.85;9.82;;;22.70;97.00;;;;;;5040134;28;37766;-58
2022/08/15 02:33:39;;;;;;;11.88;10.27;;;22.80;96.90;;;;;;5039210;28;37574;-62
2022/08/15 02:36:06;;;;;;;14.13;10.18;;;22.80;96.70;;;;;;5038633;28;35386;-58
2022/08/15 02:38:34;;;;;;;12.48;10.30;;;22.80;96.70;;;;;;5040670;28;36995;-58
2022/08/15 02:41:02;;;;;;;11.75;9.80;;;22.80;96.60;;;;;;5041057;28;38580;-61
2022/08/15 02:43:29;;;;;;;12.73;10.88;;;22.80;96.80;;;;;;5041314;28;37791;-58
2022/08/15 02:45:59;;;;;;;10.85;9.70;;;22.80;96.70;;;;;;5040917;28;36398;-62
2022/08/15 02:48:26;;;;;;;13.80;10.98;;;22.80;96.90;;;;;;5036262;28;39303;-58
2022/08/15 02:50:54;;;;;;;12.68;10.65;;;22.80;96.90;;;;;;5039290;28;38340;-58
2022/08/15 02:53:21;;;;;;;12.35;10.07;;;22.70;96.70;;;;;;5036908;28;37206;-58
2022/08/15 02:55:49;;;;;;;11.73;10.00;;;22.70;96.60;;;;;;5040709;28;37272;-58
2022/08/15 02:58:17;;;;;;;11.75;9.98;;;22.70;96.90;;;;;;5039158;28;36251;-58
2022/08/15 03:00:45;;;;;;;14.38;11.38;;;22.60;96.80;;;;;;5039845;28;37609;-58
2022/08/15 03:03:16;;;;;;;18.10;10.98;;;22.60;97.00;;;;;;5037746;28;36651;-58
2022/08/15 03:05:47;;;;;;;12.98;9.85;;;22.60;97.00;;;;;;5040060;28;36773;-58
2022/08/15 03:08:14;;;;;;;11.07;9.85;;;22.60;96.90;;;;;;5040704;28;38042;-58
2022/08/15 03:10:42;;;;;;;12.82;11.02;;;22.60;96.80;;;;;;5040069;28;36941;-58
2022/08/15 03:13:13;;;;;;;15.30;11.35;;;22.70;96.80;;;;;;5040016;28;40470;-58
2022/08/15 03:15:44;;;;;;;14.00;10.55;;;22.70;96.90;;;;;;5035107;28;36948;-62
2022/08/15 03:18:15;;;;;;;14.10;11.13;;;22.70;97.10;;;;;;5034494;28;37487;-58
2022/08/15 03:20:45;;;;;;;12.60;11.07;;;22.70;97.10;;;;;;5032916;28;39619;-62
2022/08/15 03:23:13;;;;;;;13.07;10.75;;;22.70;97.20;;;;;;5036956;28;37798;-58
2022/08/15 03:25:42;;;;;;;11.98;9.65;;;22.70;97.40;;;;;;5040258;28;37290;-58
2022/08/15 03:28:10;;;;;;;13.05;10.60;;;22.60;97.50;;;;;;5040093;28;37141;-58
2022/08/15 03:30:37;;;;;;;13.88;10.05;;;22.60;97.60;;;;;;5038348;28;38045;-61
2022/08/15 03:33:06;;;;;;;17.95;11.50;;;22.60;97.70;;;;;;5038473;28;37726;-61
2022/08/15 03:35:42;;;;;;;12.63;9.60;;;22.70;97.80;;;;;;5038218;28;37738;-58
2022/08/15 03:38:09;;;;;;;14.05;11.55;;;22.70;97.90;;;;;;5039902;28;37871;-61
2022/08/15 03:40:38;;;;;;;14.10;11.63;;;22.70;97.70;;;;;;5039922;28;38764;-58
2022/08/15 03:43:09;;;;;;;13.45;10.93;;;22.70;97.40;;;;;;5038959;28;37779;-61
2022/08/15 03:45:36;;;;;;;12.95;10.65;;;22.70;97.60;;;;;;5039914;28;38531;-58
2022/08/15 03:48:05;;;;;;;13.50;10.75;;;22.60;97.70;;;;;;5039146;28;36336;-58
2022/08/15 03:50:33;;;;;;;11.75;10.10;;;22.60;97.80;;;;;;5040047;28;37712;-58
2022/08/15 03:53:04;;;;;;;15.43;11.63;;;22.60;97.80;;;;;;5041141;28;40126;-58
2022/08/15 03:55:35;;;;;;;12.60;9.98;;;22.50;97.90;;;;;;5038712;28;36909;-61
2022/08/15 03:58:02;;;;;;;13.23;10.43;;;22.50;97.90;;;;;;5040034;28;37627;-62
2022/08/15 04:00:34;;;;;;;13.13;10.43;;;22.50;97.90;;;;;;5038983;28;37894;-58
2022/08/15 04:03:09;;;;;;;14.73;11.35;;;22.50;98.20;;;;;;5038883;28;38456;-58
2022/08/15 04:05:37;;;;;;;13.32;10.63;;;22.50;98.10;;;;;;5037687;28;38704;-61
2022/08/15 04:08:07;;;;;;;14.50;11.45;;;22.50;98.10;;;;;;5040358;28;36579;-61
2022/08/15 04:10:36;;;;;;;14.40;10.75;;;22.40;98.10;;;;;;5041415;28;39270;-61
2022/08/15 04:13:04;;;;;;;17.10;12.13;;;22.40;98.10;;;;;;5040277;28;39998;-58
2022/08/15 04:15:32;;;;;;;11.65;10.00;;;22.40;98.00;;;;;;5037911;28;36943;-62
2022/08/15 04:18:00;;;;;;;13.25;10.88;;;22.40;98.00;;;;;;5038700;28;36332;-58
2022/08/15 04:20:28;;;;;;;14.52;10.75;;;22.40;97.80;;;;;;5040652;28;37062;-58
2022/08/15 04:22:56;;;;;;;13.63;9.93;;;22.40;97.90;;;;;;5039542;28;38813;-61
2022/08/15 04:33:17;;;;;;;12.88;10.77;;;22.30;98.40;;;;;;4356180;25;20536;-61
2022/08/15 04:35:47;;;;;;;13.10;10.77;;;22.30;98.50;;;;;;5474039;22;36945;-58
2022/08/15 04:38:15;;;;;;;17.25;10.98;;;22.30;98.50;;;;;;5074530;27;38963;-61
2022/08/15 04:43:50;;;;;;;13.65;11.75;;;22.20;98.90;;;;;;5271714;23;20047;-62
2022/08/15 04:46:18;;;;;;;13.57;12.13;;;22.20;98.90;;;;;;4952244;28;36199;-59
2022/08/15 04:48:46;;;;;;;16.83;11.93;;;22.10;99.00;;;;;;4947839;28;38587;-61
2022/08/15 04:51:14;;;;;;;14.20;12.20;;;22.10;99.10;;;;;;4950210;28;37717;-58
2022/08/15 04:53:41;;;;;;;13.20;11.77;;;22.10;99.10;;;;;;4951754;28;38256;-61
2022/08/15 04:56:09;;;;;;;15.73;12.15;;;22.10;99.40;;;;;;4953223;28;35490;-58
2022/08/15 04:58:36;;;;;;;14.52;11.18;;;22.10;99.30;;;;;;4950874;28;37639;-62
2022/08/15 05:01:05;;;;;;;13.07;11.73;;;22.10;99.30;;;;;;4951847;28;39466;-61
2022/08/15 05:03:33;;;;;;;14.05;11.55;;;22.10;99.50;;;;;;4952078;28;37884;-62
2022/08/15 05:06:04;;;;;;;13.68;11.43;;;22.30;99.60;;;;;;4953831;28;36797;-58
2022/08/15 05:08:35;;;;;;;16.42;12.57;;;22.30;99.70;;;;;;4949827;28;35899;-58
2022/08/15 05:11:06;;;;;;;16.42;12.68;;;22.30;99.80;;;;;;4953831;28;38836;-62
2022/08/15 05:13:36;;;;;;;17.98;13.15;;;22.50;99.60;;;;;;4953453;28;40966;-61
2022/08/15 05:16:07;;;;;;;14.60;11.98;;;22.60;99.20;;;;;;4955102;28;36695;-61
2022/08/15 05:18:36;;;;;;;13.70;12.30;;;22.60;98.90;;;;;;4957789;28;38548;-61
2022/08/15 05:21:05;;;;;;;17.27;13.00;;;22.70;99.00;;;;;;4957796;28;39461;-62
2022/08/15 05:23:33;;;;;;;14.57;12.30;;;22.70;98.70;;;;;;4955296;28;38531;-61
2022/08/15 05:26:02;;;;;;;13.73;12.27;;;22.70;98.30;;;;;;4956240;28;36824;-62
2022/08/15 05:28:30;;;;;;;14.68;12.10;;;22.80;98.00;;;;;;4957631;28;20054;-61
2022/08/15 05:30:59;;;;;;;15.65;13.57;;;22.80;98.00;;;;;;4957058;28;39306;-61
2022/08/15 05:33:28;;;;;;;17.42;13.73;;;22.70;97.90;;;;;;4955103;28;38991;-61
2022/08/15 05:35:58;;;;;;;13.25;11.63;;;22.70;97.90;;;;;;4957228;28;36336;-62
2022/08/15 05:38:32;;;;;;;13.40;11.80;;;22.70;98.10;;;;;;4956125;28;39211;-58
2022/08/15 05:41:16;;;;;;;15.38;12.75;;;22.70;98.20;;;;;;4957323;28;36843;-58
2022/08/15 05:43:53;;;;;;;14.60;12.55;;;22.70;98.60;;;;;;4954790;28;36565;-61
2022/08/15 05:46:24;;;;;;;16.33;13.25;;;22.70;98.40;;;;;;4956606;28;36748;-62
2022/08/15 05:49:03;;;;;;;14.95;12.35;;;22.70;98.50;;;;;;4955799;28;40635;-61
2022/08/15 05:51:40;;;;;;;13.90;12.40;;;22.70;98.60;;;;;;4955576;28;39112;-62
2022/08/15 05:54:20;;;;;;;14.65;13.13;;;22.70;98.60;;;;;;4956089;28;39106;-58
2022/08/15 05:56:55;;;;;;;14.23;12.73;;;22.70;98.80;;;;;;4956847;28;37840;-62
2022/08/15 05:59:30;;;;;;;14.13;12.23;;;22.70;98.70;;;;;;4956711;28;37116;-58
2022/08/15 06:02:05;;;;;;;17.60;12.90;;;22.70;98.70;;;;;;4956724;28;39006;-58
2022/08/15 06:04:41;;;;;;;13.07;11.57;;;22.80;98.80;;;;;;4956039;28;38123;-58
2022/08/15 06:07:13;;;;;;;14.45;12.27;;;22.70;98.70;;;;;;4956460;28;39292;-58
2022/08/15 06:09:46;;;;;;;14.30;12.65;;;22.80;98.80;;;;;;4957514;28;36328;-58
2022/08/15 06:12:18;;;;;;;;;;;22.80;98.70;;;;;;4955925;28;38121;-58
2022/08/15 06:14:49;;;;;;;15.05;10.90;;;22.80;98.70;;;;;;4953818;28;37277;-58
2022/08/15 06:17:23;;;;;;;14.75;12.30;;;22.80;98.70;;;;;;4957081;28;38022;-58
2022/08/15 06:19:52;;;;;;;13.80;12.40;;;22.80;98.70;;;;;;4954470;28;38647;-61
2022/08/15 06:22:33;;;;;;;16.17;12.73;;;22.90;98.80;;;;;;4956054;28;38564;-61
2022/08/15 06:25:10;;;;;;;13.88;12.13;;;22.90;98.90;;;;;;4950166;28;37657;-61
2022/08/15 06:27:49;;;;;;;19.67;13.40;;;22.90;99.10;;;;;;4953735;28;38139;-58
2022/08/15 06:30:19;;;;;;;16.45;13.90;;;23.00;99.00;;;;;;4953781;28;37386;-61
2022/08/15 06:32:53;;;;;;;15.02;12.35;;;23.00;99.00;;;;;;4955443;28;38190;-58
2022/08/15 06:35:28;;;;;;;14.68;13.18;;;23.10;99.00;;;;;;4953478;28;37396;-62
2022/08/15 06:38:09;;;;;;;15.52;13.57;;;23.10;99.00;;;;;;4954791;28;38105;-58
2022/08/15 06:40:44;;;;;;;16.52;13.68;;;23.10;98.90;;;;;;4954797;28;37566;-61
2022/08/15 06:43:13;;;;;;;19.77;14.45;;;23.20;99.10;;;;;;4953568;28;38472;-61
2022/08/15 06:45:45;;;;;;;15.25;13.10;;;23.20;98.80;;;;;;4953097;28;37577;-62
2022/08/15 06:48:17;;;;;;;15.00;13.40;;;23.30;98.80;;;;;;4953574;28;35674;-61
2022/08/15 06:50:49;;;;;;;15.23;13.73;;;23.30;98.60;;;;;;4953627;28;36230;-62
2022/08/15 06:53:22;;;;;;;14.05;12.30;;;23.30;98.60;;;;;;4954167;28;38408;-58
2022/08/15 06:55:56;;;;;;;15.55;12.95;;;23.30;98.70;;;;;;4953376;28;37971;-58
2022/08/15 06:58:38;;;;;;;15.85;12.25;;;23.30;98.40;;;;;;4952748;28;36884;-62
2022/08/15 07:01:19;;;;;;;15.27;13.63;;;23.40;98.50;;;;;;4954463;28;37089;-61
2022/08/15 07:03:54;;;;;;;14.27;12.55;;;23.40;98.40;;;;;;4953358;28;37756;-58
2022/08/15 07:06:31;;;;;;;13.40;11.85;;;23.40;98.60;;;;;;4954122;28;38329;-58
2022/08/15 07:09:07;;;;;;;14.07;11.85;;;23.40;98.80;;;;;;4954049;28;37562;-61
2022/08/15 07:11:43;;;;;;;14.05;11.75;;;23.40;98.60;;;;;;4951887;28;38082;-61
2022/08/15 07:14:25;;;;;;;16.45;12.93;;;23.50;98.60;;;;;;4952229;28;36175;-59
2022/08/15 07:17:02;;;;;;;17.43;13.03;;;23.50;98.60;;;;;;4950788;28;37654;-62
2022/08/15 07:19:29;;;;;;;15.55;12.18;;;23.60;98.30;;;;;;4952506;28;38108;-58
2022/08/15 07:21:56;;;;;;;13.27;11.80;;;23.60;97.80;;;;;;4951902;28;39299;-58
2022/08/15 07:24:28;;;;;;;14.55;10.63;;;23.60;97.50;;;;;;4951336;28;38244;-62
2022/08/15 07:27:05;;;;;;;12.60;11.10;;;23.60;97.60;;;;;;4949694;28;37866;-58
2022/08/15 07:29:41;;;;;;;13.05;11.70;;;23.60;97.70;;;;;;4952238;28;37031;-58
2022/08/15 07:32:12;;;;;;;14.93;10.63;;;23.70;97.80;;;;;;4951462;28;40075;-62
2022/08/15 07:34:54;;;;;;;15.75;10.73;;;23.80;97.90;;;;;;4951168;28;38712;-58
2022/08/15 07:37:24;;;;;;;12.60;10.13;;;23.90;97.20;;;;;;4951820;28;36587;-61
2022/08/15 07:40:02;;;;;;;15.88;11.30;;;23.90;97.30;;;;;;4949256;28;37277;-62
2022/08/15 07:42:40;;;;;;;18.75;10.93;;;23.90;97.10;;;;;;4952603;28;38612;-58
2022/08/15 07:45:16;;;;;;;12.73;11.10;;;23.90;96.90;;;;;;4950300;28;37770;-62
2022/08/15 07:47:55;;;;;;;13.25;11.85;;;24.00;97.00;;;;;;4949526;28;38941;-62
2022/08/15 07:50:32;;;;;;;12.65;11.32;;;24.00;96.90;;;;;;4951125;28;36515;-58
2022/08/15 07:53:06;;;;;;;13.00;11.43;;;24.00;96.90;;;;;;4950636;28;38063;-59
2022/08/15 07:55:33;;;;;;;12.18;9.68;;;24.00;96.70;;;;;;4948600;28;38056;-58
2022/08/15 07:58:07;;;;;;;13.07;11.63;;;24.10;96.40;;;;;;4952912;28;36989;-62
2022/08/15 08:00:36;;;;;;;14.07;11.73;;;24.10;96.30;;;;;;4951847;28;37179;-58
2022/08/15 08:03:09;;;;;;;15.52;11.85;;;24.20;96.10;;;;;;4953221;28;39060;-58
2022/08/15 08:05:47;;;;;;;13.15;10.73;;;24.20;96.00;;;;;;4950831;28;39898;-58
2022/08/15 08:08:15;;;;;;;12.98;10.15;;;24.20;95.60;;;;;;4951783;28;37970;-58
2022/08/15 08:10:50;;;;;;;11.85;10.07;;;24.20;95.50;;;;;;4953283;28;37261;-58
2022/08/15 08:13:36;;;;;;;13.55;10.20;;;24.40;95.00;;;;;;4951138;28;37382;-58
2022/08/15 08:16:12;;;;;;;14.40;10.93;;;24.40;94.80;;;;;;4952898;28;38112;-58
2022/08/15 08:18:48;;;;;;;13.57;10.30;;;24.40;94.70;;;;;;4952444;28;37281;-58
2022/08/15 08:21:18;;;;;;;11.10;9.23;;;24.40;94.70;;;;;;4954021;28;36912;-58
2022/08/15 08:23:49;;;;;;;10.98;9.35;;;24.40;94.60;;;;;;4953360;28;39095;-58
2022/08/15 08:26:29;;;;;;;10.05;8.85;;;24.40;94.60;;;;;;4953478;28;42576;-58
2022/08/15 08:29:09;;;;;;;13.00;9.00;;;24.40;94.40;;;;;;4953347;28;38690;-58
2022/08/15 08:31:55;;;;;;;12.27;8.80;;;24.40;94.70;;;;;;4951213;28;35248;-61
2022/08/15 08:34:28;;;;;;;11.93;9.27;;;24.50;94.30;;;;;;4951719;28;36964;-61
2022/08/15 08:37:04;;;;;;;9.23;7.97;;;24.50;94.30;;;;;;4947636;28;39053;-62
2022/08/15 08:39:43;;;;;;;10.52;9.43;;;24.50;94.40;;;;;;4954275;28;37299;-61
2022/08/15 08:42:26;;;;;;;9.52;8.20;;;24.60;93.90;;;;;;4953844;28;36960;-62
2022/08/15 08:45:08;;;;;;;10.52;8.15;;;24.60;93.90;;;;;;4951530;28;38205;-61
2022/08/15 08:48:05;;;;;;;9.80;8.00;;;24.70;94.20;;;;;;4951940;28;39205;-61
2022/08/15 08:50:39;;;;;;;9.48;7.72;;;24.70;94.40;;;;;;4952765;28;38736;-58
2022/08/15 08:53:22;;;;;;;9.10;7.40;;;24.70;94.10;;;;;;4955057;28;36516;-62
2022/08/15 08:55:53;;;;;;;9.60;7.30;;;24.70;94.20;;;;;;4956801;28;36197;-61
2022/08/15 08:58:27;;;;;;;10.38;7.00;;;24.80;93.70;;;;;;4956799;28;36878;-60
2022/08/15 09:00:57;;;;;;;10.70;7.47;;;24.80;93.50;;;;;;4958088;28;38175;-61
2022/08/15 09:03:29;;;;;;;11.48;7.30;;;24.90;93.20;;;;;;4955910;28;37257;-61
2022/08/15 09:05:59;;;;;;;9.80;6.72;;;24.90;92.80;;;;;;4955517;28;37841;-58
2022/08/15 09:08:32;;;;;;;10.13;6.97;;;25.00;92.50;;;;;;4956147;28;38782;-58
2022/08/15 09:11:04;;;;;;;10.75;7.40;;;25.00;92.10;;;;;;4954439;28;37740;-58
2022/08/15 09:13:34;;;;;;;10.43;6.75;;;25.10;92.40;;;;;;4957139;28;37980;-58
2022/08/15 09:16:09;;;;;;;9.40;7.03;;;25.20;92.60;;;;;;4949781;28;37801;-58
2022/08/15 09:18:46;;;;;;;8.50;7.03;;;25.20;92.20;;;;;;4956646;28;37608;-61
2022/08/15 09:21:13;;;;;;;9.35;7.30;;;25.30;91.80;;;;;;4955642;28;39042;-58
2022/08/15 09:23:43;;;;;;;9.38;6.80;;;25.40;91.30;;;;;;4949734;28;37528;-58
2022/08/15 09:26:17;;;;;;;10.50;7.00;;;25.50;91.20;;;;;;4957877;28;37067;-58
2022/08/15 09:28:46;;;;;;;8.35;6.85;;;25.70;90.90;;;;;;4955636;28;37981;-61
2022/08/15 09:31:19;;;;;;;10.13;6.78;;;25.70;90.40;;;;;;4953572;28;38723;-58
2022/08/15 09:34:11;;;;;;;9.98;7.00;;;25.80;90.00;;;;;;4954269;28;35215;-62
2022/08/15 09:37:13;;;;;;;8.68;6.55;;;25.80;90.00;;;;;;4951796;28;36429;-61
2022/08/15 09:40:14;;;;;;;9.73;7.00;;;25.90;89.10;;;;;;4939439;28;38133;-58
2022/08/15 09:42:55;;;;;;;9.35;6.70;;;25.90;89.60;;;;;;4945714;28;38296;-61
2022/08/15 09:45:38;;;;;;;9.88;6.20;;;26.00;89.90;;;;;;4957285;28;37110;-58
2022/08/15 09:48:28;;;;;;;8.68;6.25;;;26.00;88.60;;;;;;4951718;28;37753;-61
2022/08/15 09:51:17;;;;;;;11.52;6.18;;;26.20;88.60;;;;;;4943671;28;36854;-58
2022/08/15 09:53:58;;;;;;;9.73;7.13;;;26.30;88.20;;;;;;4956765;28;38596;-62
2022/08/15 09:56:26;;;;;;;8.38;7.28;;;26.40;87.20;;;;;;4954187;28;38811;-58
2022/08/15 09:58:58;;;;;;;8.75;7.22;;;26.40;86.30;;;;;;4954576;28;37759;-58
2022/08/15 10:01:29;;;;;;;9.32;7.57;;;26.40;85.60;;;;;;4956174;28;38849;-61
2022/08/15 10:04:01;;;;;;;9.10;7.05;;;26.40;85.50;;;;;;4954797;28;39652;-58
2022/08/15 10:06:33;;;;;;;9.70;7.28;;;26.40;86.70;;;;;;4955962;28;37080;-58
2022/08/15 10:09:14;;;;;;;10.20;7.60;;;26.50;87.30;;;;;;4955529;28;38189;-62
2022/08/15 10:12:16;;;;;;;8.45;7.05;;;26.60;86.00;;;;;;4955566;28;36988;-62
2022/08/15 10:15:02;;;;;;;11.20;6.60;;;26.80;85.10;;;;;;4942704;28;36533;-62
2022/08/15 10:17:42;;;;;;;7.80;6.28;;;26.90;84.10;;;;;;4951476;28;35938;-58
2022/08/15 10:20:50;;;;;;;9.43;5.80;;;26.90;82.40;;;;;;4952670;28;39353;-58
2022/08/15 10:23:20;;;;;;;7.78;6.05;;;26.90;83.20;;;;;;4949166;28;38605;-62
2022/08/15 10:25:48;;;;;;;9.70;6.22;;;26.90;83.00;;;;;;4946164;28;36689;-61
2022/08/15 10:28:24;;;;;;;7.55;5.43;;;26.90;82.50;;;;;;4953518;28;38242;-58
2022/08/15 10:31:21;;;;;;;16.23;7.05;;;27.00;82.10;;;;;;4953610;28;37955;-61
2022/08/15 10:33:52;;;;;;;10.60;6.97;;;27.00;80.30;;;;;;4948090;28;37646;-58
2022/08/15 10:36:26;;;;;;;11.45;6.20;;;27.10;80.20;;;;;;4947313;28;38480;-61
2022/08/15 10:39:18;;;;;;;11.35;7.07;;;27.10;78.90;;;;;;4950227;28;38221;-62
2022/08/15 10:42:00;;;;;;;10.35;6.22;;;27.10;79.30;;;;;;4950036;28;37665;-58
2022/08/15 10:44:42;;;;;;;10.18;6.50;;;27.20;77.60;;;;;;4945359;28;37704;-58
2022/08/15 10:47:20;;;;;;;8.68;7.07;;;27.30;76.80;;;;;;4943764;28;37512;-61
2022/08/15 10:50:01;;;;;;;11.15;7.63;;;27.30;77.60;;;;;;4950970;28;37743;-58
2022/08/15 10:52:40;;;;;;;13.30;7.85;;;27.30;77.70;;;;;;4947426;28;38510;-58
2022/08/15 10:55:24;;;;;;;11.32;7.38;;;27.30;80.50;;;;;;4949232;28;36933;-58
2022/08/15 10:57:53;;;;;;;11.85;7.40;;;27.20;82.10;;;;;;4949225;28;38097;-62
2022/08/15 11:00:39;;;;;;;9.45;7.65;;;27.20;83.20;;;;;;4950201;28;38046;-62
2022/08/15 11:03:12;;;;;;;10.95;7.47;;;27.10;84.10;;;;;;4943743;28;37247;-58
2022/08/15 11:05:40;;;;;;;10.52;7.53;;;27.10;83.50;;;;;;4946179;28;38921;-58
2022/08/15 11:08:17;;;;;;;11.35;8.60;;;27.10;83.20;;;;;;4946897;28;38721;-62
2022/08/15 11:10:45;;;;;;;14.55;8.73;;;27.10;83.30;;;;;;4948452;28;35405;-62
2022/08/15 11:13:15;;;;;;;10.52;9.43;;;27.10;84.40;;;;;;4944543;28;37013;-58
2022/08/15 11:15:54;;;;;;;12.27;8.75;;;27.10;83.10;;;;;;4948040;28;38760;-58
2022/08/15 11:18:29;;;;;;;11.23;8.98;;;27.10;84.00;;;;;;4946234;28;37943;-62
2022/08/15 11:21:17;;;;;;;12.27;9.02;;;27.00;85.10;;;;;;4952683;28;35267;-58
2022/08/15 11:23:53;;;;;;;13.60;9.60;;;26.90;85.70;;;;;;4945050;28;38148;-58
2022/08/15 11:26:27;;;;;;;12.82;10.60;;;26.90;86.00;;;;;;4949511;28;37132;-58
2022/08/15 11:29:10;;;;;;;11.57;9.10;;;26.80;86.30;;;;;;4946393;28;37678;-58
2022/08/15 11:31:45;;;;;;;11.68;9.40;;;26.70;86.40;;;;;;4951515;28;36570;-58
2022/08/15 11:34:21;;;;;;;14.27;9.77;;;26.60;87.20;;;;;;4943889;28;39834;-61
2022/08/15 11:36:49;;;;;;;13.13;9.38;;;26.50;87.70;;;;;;4946947;28;40514;-58
2022/08/15 11:39:19;;;;;;;11.52;9.05;;;26.40;88.40;;;;;;4948623;28;37852;-58
2022/08/15 11:41:50;;;;;;;11.32;8.55;;;26.40;89.00;;;;;;4950094;28;37242;-58
2022/08/15 11:44:20;;;;;;;10.82;8.90;;;26.20;90.10;;;;;;4944908;28;38051;-58
2022/08/15 11:46:48;;;;;;;16.63;9.93;;;26.20;91.10;;;;;;4946857;28;38036;-62
2022/08/15 11:49:28;;;;;;;11.88;10.20;;;26.10;92.20;;;;;;4938882;28;37654;-58
2022/08/15 11:52:02;;;;;;;13.93;10.13;;;26.10;93.80;;;;;;4944046;28;37269;-58
2022/08/15 11:54:31;;;;;;;15.02;10.73;;;25.90;94.50;;;;;;4944300;28;37309;-58
2022/08/15 11:57:01;;;;;;;11.50;9.73;;;25.80;95.20;;;;;;4949708;28;37666;-58
2022/08/15 11:59:31;;;;;;;12.27;9.70;;;25.80;95.60;;;;;;4946475;28;36632;-61
2022/08/15 12:02:08;;;;;;;11.27;9.50;;;25.70;95.30;;;;;;4952137;28;36445;-61
2022/08/15 12:04:38;;;;;;;13.13;10.40;;;25.60;95.40;;;;;;4943281;28;38624;-61
2022/08/15 12:07:11;;;;;;;12.95;10.95;;;25.50;95.60;;;;;;4949156;28;38197;-61
2022/08/15 12:09:40;;;;;;;14.23;10.68;;;25.40;96.50;;;;;;4943952;28;37853;-62
2022/08/15 12:12:25;;;;;;;12.77;10.10;;;25.30;96.90;;;;;;4951894;28;37230;-58
2022/08/15 12:14:57;;;;;;;13.23;10.45;;;25.20;98.10;;;;;;4946579;28;38051;-58
2022/08/15 12:17:29;;;;;;;13.32;11.32;;;25.10;97.90;;;;;;4946833;28;37039;-61
2022/08/15 12:19:57;;;;;;;13.57;10.45;;;25.10;98.20;;;;;;4943918;28;37366;-61
2022/08/15 12:22:32;;;;;;;13.63;10.27;;;25.00;98.70;;;;;;4950040;28;36511;-58
2022/08/15 12:25:01;;;;;;;13.23;11.10;;;25.00;98.80;;;;;;4946319;28;36347;-58
2022/08/15 12:27:29;;;;;;;12.82;11.38;;;24.90;99.50;;;;;;4949902;28;38831;-58
2022/08/15 12:29:56;;;;;;;14.65;11.48;;;24.90;99.90;;;;;;4945540;28;36781;-58
2022/08/15 12:32:24;;;;;;;12.15;10.57;;;24.80;99.90;;;;;;4954396;28;36831;-61
2022/08/15 12:34:54;;;;;;;15.98;10.70;;;24.80;99.90;;;;;;4951541;28;38680;-58
2022/08/15 12:37:24;;;;;;;15.05;11.30;;;24.70;99.90;;;;;;4945080;28;38020;-58
2022/08/15 12:39:54;;;;;;;12.07;10.82;;;24.70;99.90;;;;;;4950031;28;37998;-58
2022/08/15 12:42:27;;;;;;;12.85;10.57;;;24.70;99.90;;;;;;4953681;28;37986;-58
2022/08/15 12:44:58;;;;;;;13.07;11.00;;;24.70;99.90;;;;;;4954316;28;38867;-61
2022/08/15 12:47:29;;;;;;;10.80;9.70;;;24.70;99.90;;;;;;4944875;28;38994;-62
2022/08/15 12:49:58;;;;;;;13.05;10.18;;;24.70;99.90;;;;;;4947499;28;38575;-62
2022/08/15 12:52:26;;;;;;;13.63;10.07;;;24.80;99.90;;;;;;4951935;28;36494;-61
2022/08/15 12:54:53;;;;;;;13.23;9.38;;;24.70;99.90;;;;;;4951972;28;37590;-61
2022/08/15 12:57:22;;;;;;;11.98;10.65;;;24.80;99.90;;;;;;4949610;28;38469;-61
2022/08/15 12:59:50;;;;;;;13.23;10.10;;;24.80;99.90;;;;;;4949737;28;36520;-62
2022/08/15 13:02:19;;;;;;;13.52;9.95;;;24.90;99.90;;;;;;4955541;28;38044;-62
2022/08/15 13:04:49;;;;;;;10.73;9.43;;;25.10;99.90;;;;;;4951738;28;37734;-62
2022/08/15 13:07:18;;;;;;;11.88;9.32;;;25.20;99.90;;;;;;4945930;28;38986;-62
2022/08/15 13:09:48;;;;;;;11.07;9.80;;;25.40;99.90;;;;;;4948373;28;38598;-61
2022/08/15 13:12:16;;;;;;;10.23;8.45;;;25.40;99.90;;;;;;4954379;28;38907;-62
2022/08/15 13:14:46;;;;;;;9.63;7.50;;;25.50;99.90;;;;;;4952299;28;37790;-62